METAR Data
IDs: Format: Raw Decoded Include TAF

Data at: 2354 UTC 25 Oct 2021

LIPC 252255Z 25003KT 9999 SCT040 12/10 Q1022 RMK OVC SCT100 VIS MIN 9999 WIND THR11 26004KT WIND THR29 27004KT BLU